Cisco, TX (76437)

3:41 AM CDT on April 02, 2015 (GMT -0500)
North Chaney | | Change Station
CLOSE
Current Station
Personal Weather Station
Location: Ranger, TX
Elevation: 1437 ft
Nearby Weather Stations

Elev 1437 ft 32.39 °N, 98.62 °W | Updated 52 seconds ago

Clear
Clear
64.6 °F
Feels Like 64.6 °F
N
5.0
Wind Variable Wind from SSE
Gusts 11.0 mph

Today
High -- | Low -- °F
--% Chance of Precip.
Yesterday
High -- | Low -- °F
Precip. -- in
7:23 AM 7:56 PM
Waxing Gibbous, 96% visible
Pressure 29.80 in
Visibility 10.0 miles
Clouds Clear
Dew Point 62 °F
Humidity 93%
Rainfall 0.00 in
Snow Depth Not available.
UV 0 out of 12
Pollen 11.30 out of 12
Air Quality Not available.
Flu Activity Not available.
METAR KBKD 020815Z AUTO 19016G25KT 10SM CLR 21/15 A2980 RMK AO2 T02050150

More Conditions Fewer Conditions

Pressure 29.80 in
Visibility 10.0 miles
Clouds Clear
Dew Point 62 °F
Humidity 93%
Rainfall 0.00 in
Snow Depth Not available.
UV 0 out of 12
Pollen 11.30 out of 12
Air Quality Not available.
Flu Activity Not available.
METAR KBKD 020815Z AUTO 19016G25KT 10SM CLR 21/15 A2980 RMK AO2 T02050150

More Conditions Fewer Conditions

10-Day Weather Forecast

Almanac

Astronomy

Apr. 02, 2015 Rise Set
Actual Time
Civil Twilight
Nautical Twilight
Astronomical Twilight
Moon
Length of Visible Light
Length of Day
Tomorrow will be .
, % of the Moon is Illuminated

Today's Extremes

State Highs State Lows

Community

WunderPhotos

Upload Photos

1,810,208 photos uploaded!

WunderBlogs® & News

Nearby

Air Quality

  Air Quality AQ Index Pollutant
Not available.

Snow Depth

Station Depth Elevation

Earthquake Activity

City Distance Mag. Time & Date
Minimum magnitude displayed is 2.5.

Coastal Water Temperatures

Place Temperature

Stations

Nearby Weather Stations

Station Location Temp. Windchill Dew Point Humidity Wind Precip. Elev Updated Type